sensor_id;sensor_type;location;lat;lon;timestamp;P1;durP1;ratioP1;P2;durP2;ratioP2
40629;SDS011;26329;40.388;-3.710;2022-09-16T00:08:03;3.38;;;0.25;;
40629;SDS011;26329;40.388;-3.710;2022-09-16T00:18:05;1.47;;;0.10;;
40629;SDS011;26329;40.388;-3.710;2022-09-16T00:28:06;0.87;;;0.10;;
40629;SDS011;26329;40.388;-3.710;2022-09-16T00:38:08;3.83;;;0.20;;
40629;SDS011;26329;40.388;-3.710;2022-09-16T00:48:12;3.63;;;0.20;;
40629;SDS011;26329;40.388;-3.710;2022-09-16T00:58:24;1.85;;;0.28;;
40629;SDS011;26329;40.388;-3.710;2022-09-16T01:08:42;0.40;;;0.10;;
40629;SDS011;26329;40.388;-3.710;2022-09-16T01:49:42;2.88;;;0.10;;
40629;SDS011;26329;40.388;-3.710;2022-09-16T02:00:01;1.70;;;0.10;;
40629;SDS011;26329;40.388;-3.710;2022-09-16T02:10:13;2.80;;;0.30;;
40629;SDS011;26329;40.388;-3.710;2022-09-16T02:20:24;5.45;;;0.30;;
40629;SDS011;26329;40.388;-3.710;2022-09-16T02:30:29;0.75;;;0.30;;
40629;SDS011;26329;40.388;-3.710;2022-09-16T02:40:33;2.75;;;0.20;;
40629;SDS011;26329;40.388;-3.710;2022-09-16T02:50:40;1.90;;;0.20;;
40629;SDS011;26329;40.388;-3.710;2022-09-16T03:01:00;2.88;;;0.22;;
40629;SDS011;26329;40.388;-3.710;2022-09-16T03:21:40;5.25;;;0.17;;
40629;SDS011;26329;40.388;-3.710;2022-09-16T03:32:08;1.88;;;0.20;;
40629;SDS011;26329;40.388;-3.710;2022-09-16T03:42:24;3.03;;;0.10;;
40629;SDS011;26329;40.388;-3.710;2022-09-16T03:52:26;4.18;;;0.20;;
40629;SDS011;26329;40.388;-3.710;2022-09-16T04:02:28;0.60;;;0.10;;
40629;SDS011;26329;40.388;-3.710;2022-09-16T04:12:30;1.80;;;0.17;;
40629;SDS011;26329;40.388;-3.710;2022-09-16T04:22:32;3.37;;;0.07;;
40629;SDS011;26329;40.388;-3.710;2022-09-16T04:32:34;1.95;;;0.10;;
40629;SDS011;26329;40.388;-3.710;2022-09-16T04:42:36;2.05;;;0.10;;
40629;SDS011;26329;40.388;-3.710;2022-09-16T04:52:38;2.50;;;0.20;;
40629;SDS011;26329;40.388;-3.710;2022-09-16T05:02:42;1.50;;;0.20;;
40629;SDS011;26329;40.388;-3.710;2022-09-16T05:12:51;1.67;;;0.10;;
40629;SDS011;26329;40.388;-3.710;2022-09-16T05:22:54;2.30;;;0.00;;
40629;SDS011;26329;40.388;-3.710;2022-09-16T05:32:56;3.65;;;0.10;;
40629;SDS011;26329;40.388;-3.710;2022-09-16T05:42:58;2.35;;;0.30;;
40629;SDS011;26329;40.388;-3.710;2022-09-16T05:52:59;1.48;;;0.30;;
40629;SDS011;26329;40.388;-3.710;2022-09-16T06:03:01;4.75;;;0.50;;
40629;SDS011;26329;40.388;-3.710;2022-09-16T06:13:03;4.78;;;0.47;;
40629;SDS011;26329;40.388;-3.710;2022-09-16T06:23:05;5.13;;;0.35;;
40629;SDS011;26329;40.388;-3.710;2022-09-16T06:33:07;5.30;;;1.10;;
40629;SDS011;26329;40.388;-3.710;2022-09-16T06:43:11;5.28;;;0.82;;
40629;SDS011;26329;40.388;-3.710;2022-09-16T06:53:12;7.05;;;0.60;;
40629;SDS011;26329;40.388;-3.710;2022-09-16T07:03:14;39.78;;;3.45;;
40629;SDS011;26329;40.388;-3.710;2022-09-16T07:13:16;5.65;;;0.52;;
40629;SDS011;26329;40.388;-3.710;2022-09-16T07:23:17;4.28;;;0.93;;
40629;SDS011;26329;40.388;-3.710;2022-09-16T07:33:19;8.88;;;1.02;;
40629;SDS011;26329;40.388;-3.710;2022-09-16T07:43:21;10.32;;;0.90;;
40629;SDS011;26329;40.388;-3.710;2022-09-16T07:53:24;14.73;;;1.37;;
40629;SDS011;26329;40.388;-3.710;2022-09-16T08:03:26;10.07;;;1.85;;
40629;SDS011;26329;40.388;-3.710;2022-09-16T08:13:28;10.80;;;1.25;;
40629;SDS011;26329;40.388;-3.710;2022-09-16T08:23:30;7.63;;;1.80;;
40629;SDS011;26329;40.388;-3.710;2022-09-16T08:33:31;2.40;;;0.25;;
40629;SDS011;26329;40.388;-3.710;2022-09-16T08:43:41;1.88;;;0.43;;
40629;SDS011;26329;40.388;-3.710;2022-09-16T08:54:05;8.50;;;1.38;;
40629;SDS011;26329;40.388;-3.710;2022-09-16T09:04:10;1.40;;;0.20;;
40629;SDS011;26329;40.388;-3.710;2022-09-16T09:14:22;0.90;;;0.30;;
40629;SDS011;26329;40.388;-3.710;2022-09-16T09:35:27;3.17;;;0.20;;
40629;SDS011;26329;40.388;-3.710;2022-09-16T09:45:55;0.95;;;0.08;;
40629;SDS011;26329;40.388;-3.710;2022-09-16T10:06:22;3.92;;;0.20;;
40629;SDS011;26329;40.388;-3.710;2022-09-16T10:16:31;2.28;;;0.20;;
40629;SDS011;26329;40.388;-3.710;2022-09-16T10:26:39;0.40;;;0.10;;
40629;SDS011;26329;40.388;-3.710;2022-09-16T10:36:40;2.67;;;0.28;;
40629;SDS011;26329;40.388;-3.710;2022-09-16T10:47:00;2.92;;;0.30;;
40629;SDS011;26329;40.388;-3.710;2022-09-16T10:57:22;1.50;;;0.20;;
40629;SDS011;26329;40.388;-3.710;2022-09-16T11:07:36;3.22;;;0.10;;
40629;SDS011;26329;40.388;-3.710;2022-09-16T11:28:20;1.35;;;0.20;;
40629;SDS011;26329;40.388;-3.710;2022-09-16T11:38:50;3.33;;;0.10;;
40629;SDS011;26329;40.388;-3.710;2022-09-16T11:59:26;1.25;;;0.10;;
40629;SDS011;26329;40.388;-3.710;2022-09-16T12:30:05;1.80;;;0.30;;
40629;SDS011;26329;40.388;-3.710;2022-09-16T12:40:22;2.92;;;0.10;;
40629;SDS011;26329;40.388;-3.710;2022-09-16T13:00:57;0.55;;;0.10;;
40629;SDS011;26329;40.388;-3.710;2022-09-16T13:11:23;1.13;;;0.73;;
40629;SDS011;26329;40.388;-3.710;2022-09-16T13:21:27;2.65;;;0.10;;
40629;SDS011;26329;40.388;-3.710;2022-09-16T13:31:43;1.47;;;0.20;;
40629;SDS011;26329;40.388;-3.710;2022-09-16T13:41:48;0.70;;;0.10;;
40629;SDS011;26329;40.388;-3.710;2022-09-16T13:51:50;0.38;;;0.10;;
40629;SDS011;26329;40.388;-3.710;2022-09-16T14:22:25;1.15;;;0.10;;
40629;SDS011;26329;40.388;-3.710;2022-09-16T14:32:29;1.45;;;0.10;;
40629;SDS011;26329;40.388;-3.710;2022-09-16T14:42:33;2.30;;;0.10;;
40629;SDS011;26329;40.388;-3.710;2022-09-16T14:52:35;0.95;;;0.10;;
40629;SDS011;26329;40.388;-3.710;2022-09-16T15:02:45;0.95;;;0.10;;
40629;SDS011;26329;40.388;-3.710;2022-09-16T15:12:57;1.60;;;0.10;;
40629;SDS011;26329;40.388;-3.710;2022-09-16T15:23:04;10.93;;;0.70;;
40629;SDS011;26329;40.388;-3.710;2022-09-16T15:33:21;6.32;;;0.40;;
40629;SDS011;26329;40.388;-3.710;2022-09-16T15:43:33;1.40;;;0.10;;
40629;SDS011;26329;40.388;-3.710;2022-09-16T15:53:48;3.83;;;0.08;;
40629;SDS011;26329;40.388;-3.710;2022-09-16T16:03:53;0.55;;;0.10;;
40629;SDS011;26329;40.388;-3.710;2022-09-16T16:13:58;3.72;;;0.20;;
40629;SDS011;26329;40.388;-3.710;2022-09-16T16:23:59;0.20;;;0.00;;
40629;SDS011;26329;40.388;-3.710;2022-09-16T16:34:02;9.73;;;0.30;;
40629;SDS011;26329;40.388;-3.710;2022-09-16T16:44:04;0.82;;;0.10;;
40629;SDS011;26329;40.388;-3.710;2022-09-16T16:54:06;0.55;;;0.00;;
40629;SDS011;26329;40.388;-3.710;2022-09-16T17:04:08;2.40;;;0.10;;
40629;SDS011;26329;40.388;-3.710;2022-09-16T17:14:10;5.78;;;0.20;;
40629;SDS011;26329;40.388;-3.710;2022-09-16T17:24:13;3.92;;;0.05;;
40629;SDS011;26329;40.388;-3.710;2022-09-16T17:34:15;1.23;;;0.17;;
40629;SDS011;26329;40.388;-3.710;2022-09-16T17:44:18;5.78;;;3.03;;
40629;SDS011;26329;40.388;-3.710;2022-09-16T17:54:20;1.77;;;1.52;;
40629;SDS011;26329;40.388;-3.710;2022-09-16T18:04:22;1.58;;;0.85;;
40629;SDS011;26329;40.388;-3.710;2022-09-16T18:14:24;7.97;;;1.50;;
40629;SDS011;26329;40.388;-3.710;2022-09-16T18:24:25;1.77;;;1.13;;
40629;SDS011;26329;40.388;-3.710;2022-09-16T18:34:27;1.25;;;0.77;;
40629;SDS011;26329;40.388;-3.710;2022-09-16T18:44:29;6.55;;;1.30;;
40629;SDS011;26329;40.388;-3.710;2022-09-16T18:54:31;4.28;;;0.55;;
40629;SDS011;26329;40.388;-3.710;2022-09-16T19:04:36;3.65;;;0.70;;
40629;SDS011;26329;40.388;-3.710;2022-09-16T19:14:39;7.00;;;1.45;;
40629;SDS011;26329;40.388;-3.710;2022-09-16T19:24:41;4.15;;;2.50;;
40629;SDS011;26329;40.388;-3.710;2022-09-16T19:34:43;5.50;;;1.40;;
40629;SDS011;26329;40.388;-3.710;2022-09-16T19:44:45;4.85;;;1.40;;
40629;SDS011;26329;40.388;-3.710;2022-09-16T19:54:46;3.40;;;1.27;;
40629;SDS011;26329;40.388;-3.710;2022-09-16T20:04:49;2.13;;;0.82;;
40629;SDS011;26329;40.388;-3.710;2022-09-16T20:14:50;0.90;;;0.60;;
40629;SDS011;26329;40.388;-3.710;2022-09-16T20:24:52;1.35;;;0.60;;
40629;SDS011;26329;40.388;-3.710;2022-09-16T20:34:53;4.57;;;1.15;;
40629;SDS011;26329;40.388;-3.710;2022-09-16T20:44:55;2.78;;;1.92;;
40629;SDS011;26329;40.388;-3.710;2022-09-16T20:54:56;2.22;;;1.70;;
40629;SDS011;26329;40.388;-3.710;2022-09-16T21:04:58;11.68;;;4.35;;
40629;SDS011;26329;40.388;-3.710;2022-09-16T21:15:04;6.68;;;3.97;;
40629;SDS011;26329;40.388;-3.710;2022-09-16T21:25:06;8.18;;;3.05;;
40629;SDS011;26329;40.388;-3.710;2022-09-16T21:35:08;0.77;;;0.60;;
40629;SDS011;26329;40.388;-3.710;2022-09-16T21:45:11;2.90;;;0.20;;
40629;SDS011;26329;40.388;-3.710;2022-09-16T21:55:13;1.17;;;0.20;;
40629;SDS011;26329;40.388;-3.710;2022-09-16T22:05:15;1.80;;;0.30;;
40629;SDS011;26329;40.388;-3.710;2022-09-16T22:15:17;0.60;;;0.10;;
40629;SDS011;26329;40.388;-3.710;2022-09-16T22:25:20;2.50;;;0.40;;
40629;SDS011;26329;40.388;-3.710;2022-09-16T22:35:22;0.40;;;0.20;;
40629;SDS011;26329;40.388;-3.710;2022-09-16T22:45:24;0.30;;;0.20;;
40629;SDS011;26329;40.388;-3.710;2022-09-16T22:55:27;0.82;;;0.20;;
40629;SDS011;26329;40.388;-3.710;2022-09-16T23:05:28;0.20;;;0.10;;
40629;SDS011;26329;40.388;-3.710;2022-09-16T23:15:30;0.73;;;0.28;;
40629;SDS011;26329;40.388;-3.710;2022-09-16T23:25:33;1.65;;;0.10;;
40629;SDS011;26329;40.388;-3.710;2022-09-16T23:35:35;0.35;;;0.20;;
40629;SDS011;26329;40.388;-3.710;2022-09-16T23:45:36;0.38;;;0.20;;
